KCEF/CEF METAR and TAF weather

Enter ICAO airport designator
Station Type Date Time Source
KCEF METAR 2020/01/20 15:56 UTC NOAA

KCEF 201556Z 02014G19KT 10SM CLR M06/M17 A3022 RMK AO2A SLP243 T10621173


Station Type Date Time Source
KCEF Decoded METAR 2020/01/20 15:56 UTC NOAA

Chicopee Falls / Westover Air Force Base, MA, United States (KCEF) 42-12N 072-32W 75M
Jan 20, 2020 - 10:56 AM EST / 2020.01.20 1556 UTC
Wind: from the NNE (020 degrees) at 16 MPH (14 KT) gusting to 22 MPH (19 KT):0
Visibility: 10 mile(s):0
Sky conditions: clear
Temperature: 20.8 F (-6.2 C)
Windchill: 6 F (-14 C):1
Dew Point: 0.9 F (-17.3 C)
Relative Humidity: 41%
Pressure (altimeter): 30.22 in. Hg (1023 hPa)
ob: KCEF 201556Z 02014G19KT 10SM CLR M06/M17 A3022 RMK AO2A SLP243 T10621173
cycle: 16

Station Type Date Time Source
KCEF TAF 2020/01/20 11:06 UTC NOAA

TAF TAF KCEF 201100Z 2011/2117 33012KT 9999 SCT025 QNH3007INS
BECMG 2012/2013 33012G18KT 9999 FEW025 520406 QNH3015INS
BECMG 2021/2022 31009KT 9999 SKC QNH3027INS TXM03/2019Z TNM16/2111Z

Example: see airport list